Pagina principale
METAR-TAF:

METAR-TAF

Aeroporti :

Ilam, Iran

latitudine: 33-35-09N, longitudine: 046-24-20E, altezza: 1334 m

Osservazione

Il bollettino è stato emesso 53 minuti fa, alle 19:00 UTC
Vento 4 kt da est
Temperature 3°C
Umidità 56%
Pressione 1023 hPa
Visibilità 10 km o più
nessuna nube inferiore a 1500 m e nessun cumulonembo

METAR: OICI 211900Z 09004KT CAVOK 03/M05 Q1023 A3021

Ora: 23:23 (19:53 UTC)

Previsione

Il bollettino è stato emesso 2 ore e 23 minuti fa, alle 17:30 UTC
Previsione valida dal 21 alle 18 UTC al 22 alle 24 UTC
Vento 6 kt da est/nord-est
Visibilità: 7000 m

TAF: OICI 211730Z 2118/2224 06006KT 7000 NSC

Osservazioni e previsioni meteorologiche di più di 4000 aeroporti (messaggi METAR e TAF).

Le stazioni disponibili sono rappresentate dai dischi gialli e rossi sulla carta.

Puntare il mouse per vedere il nome della stazione.

Clicca sopra per visualizzare le osservazioni e previsioni meteorologiche.

Per cambiare la mappa : fare clic sui pulsanti verdi con una croce nera per ingrandire, il pulsante verde con un trattino per diminuire, o sulla freccia verde per le mappe adiacenti.


METAR-TAF: